Time;durP1;ratioP1;P1;durP2;ratioP2;P2;SDS_P1;SDS_P2;PMS_P1;PMS_P2;Temp;Humidity;BMP_temperature;BMP_pressure;BME280_temperature;BME280_humidity;BME280_pressure;Samples;Min_cycle;Max_cycle;Signal;HPM_P1;HPM_P2
2022/08/06 00:00:51;;;;;;;4.80;1.85;;;20.70;64.20;;;;;;4991494;28;20034;-75
2022/08/06 00:03:16;;;;;;;5.20;2.03;;;20.80;63.80;;;;;;4993397;28;20026;-71
2022/08/06 00:05:42;;;;;;;5.65;1.67;;;20.80;64.50;;;;;;4993368;28;20460;-67
2022/08/06 00:08:07;;;;;;;5.88;1.67;;;20.80;63.70;;;;;;4999771;28;20078;-76
2022/08/06 00:10:33;;;;;;;3.08;1.25;;;20.80;63.80;;;;;;4976530;28;20498;-71
2022/08/06 00:13:00;;;;;;;4.25;1.33;;;20.80;63.70;;;;;;4993493;28;20392;-76
2022/08/06 00:15:25;;;;;;;3.70;0.95;;;20.80;63.60;;;;;;4993849;28;20030;-75
2022/08/06 00:17:51;;;;;;;3.60;0.98;;;20.80;63.60;;;;;;4993916;28;20117;-75
2022/08/06 00:20:17;;;;;;;3.92;1.10;;;20.80;63.50;;;;;;4993931;28;20022;-77
2022/08/06 00:22:43;;;;;;;4.40;1.35;;;20.80;63.60;;;;;;4993702;28;20440;-77
2022/08/06 00:25:10;;;;;;;3.42;0.80;;;20.70;63.70;;;;;;4993529;28;20053;-76
2022/08/06 00:27:36;;;;;;;4.10;1.10;;;20.70;63.90;;;;;;4993432;28;20463;-76
2022/08/06 00:30:03;;;;;;;3.53;0.77;;;20.70;64.30;;;;;;4993741;28;20077;-77
2022/08/06 00:32:29;;;;;;;4.90;1.25;;;20.70;64.40;;;;;;4993612;28;20041;-77
2022/08/06 00:34:54;;;;;;;4.07;1.25;;;20.70;64.50;;;;;;4993674;28;20121;-70
2022/08/06 00:37:20;;;;;;;3.65;1.10;;;20.60;64.60;;;;;;4993484;28;20034;-66
2022/08/06 00:39:46;;;;;;;3.65;1.10;;;20.60;64.70;;;;;;4975923;28;20030;-65
2022/08/06 00:42:12;;;;;;;6.45;1.40;;;20.60;64.90;;;;;;4993306;28;20030;-73
2022/08/06 00:44:37;;;;;;;3.75;1.20;;;20.60;65.00;;;;;;4993720;28;20109;-66
2022/08/06 00:47:03;;;;;;;3.92;1.13;;;20.60;65.10;;;;;;4993672;28;20514;-67
2022/08/06 00:49:29;;;;;;;2.50;0.93;;;20.60;65.00;;;;;;4993663;28;20058;-66
2022/08/06 00:51:55;;;;;;;3.30;1.13;;;20.60;64.90;;;;;;4993341;28;20035;-65
2022/08/06 00:54:21;;;;;;;5.28;1.05;;;20.60;65.20;;;;;;4993683;28;20023;-65
2022/08/06 00:56:46;;;;;;;7.20;1.23;;;20.50;65.10;;;;;;4993312;28;20062;-66
2022/08/06 00:59:12;;;;;;;4.18;1.25;;;20.60;65.30;;;;;;4993656;28;20376;-66
2022/08/06 01:01:37;;;;;;;2.83;1.20;;;20.50;65.10;;;;;;4993369;28;20105;-65
2022/08/06 01:04:03;;;;;;;4.43;1.45;;;20.50;65.10;;;;;;4995945;28;20468;-67
2022/08/06 01:06:29;;;;;;;5.85;1.27;;;20.50;65.10;;;;;;4997556;28;20037;-69
2022/08/06 01:08:55;;;;;;;4.38;1.10;;;20.50;65.40;;;;;;4997244;28;20026;-66
2022/08/06 01:11:21;;;;;;;5.85;1.48;;;20.50;65.60;;;;;;4997256;28;20069;-74
2022/08/06 01:13:46;;;;;;;8.45;1.58;;;19.50;68.30;;;;;;4996818;28;20034;-75
2022/08/06 01:16:36;;;;;;;3.53;0.82;;;18.90;70.60;;;;;;4997198;28;20041;-72
2022/08/06 01:19:29;;;;;;;4.65;1.33;;;18.60;71.60;;;;;;4997182;28;20030;-70
2022/08/06 01:22:06;;;;;;;4.85;1.20;;;18.40;72.50;;;;;;4997218;28;20122;-74
2022/08/06 01:25:07;;;;;;;4.88;0.95;;;18.30;73.20;;;;;;4990728;28;20023;-75
2022/08/06 01:27:33;;;;;;;4.32;1.30;;;18.30;73.40;;;;;;5012616;28;20420;-67
2022/08/06 01:30:07;;;;;;;7.40;1.23;;;18.20;73.80;;;;;;5015242;28;20036;-67
2022/08/06 01:32:52;;;;;;;4.65;1.48;;;18.20;74.00;;;;;;4998781;28;20022;-67
2022/08/06 01:35:26;;;;;;;5.68;1.20;;;18.20;74.10;;;;;;5015037;28;20080;-70
2022/08/06 01:38:08;;;;;;;5.00;1.30;;;18.10;74.00;;;;;;5015920;28;20125;-69
2022/08/06 01:40:37;;;;;;;3.92;0.95;;;18.10;74.20;;;;;;5016237;28;20069;-67
2022/08/06 01:43:07;;;;;;;6.57;1.08;;;18.00;74.10;;;;;;5016194;28;20490;-72
2022/08/06 01:45:34;;;;;;;6.03;1.45;;;18.00;74.60;;;;;;5016418;28;20026;-68
2022/08/06 01:48:06;;;;;;;3.63;1.13;;;18.00;74.90;;;;;;5016257;28;20463;-75
2022/08/06 01:50:40;;;;;;;3.70;1.60;;;18.00;74.80;;;;;;5016310;28;20061;-75
2022/08/06 01:53:11;;;;;;;5.97;1.20;;;17.90;75.00;;;;;;5015941;28;20049;-75
2022/08/06 01:55:43;;;;;;;5.55;1.13;;;17.90;75.50;;;;;;5015753;28;20056;-68
2022/08/06 01:58:10;;;;;;;2.65;1.10;;;17.80;75.20;;;;;;4999709;28;20074;-76
2022/08/06 02:00:40;;;;;;;4.05;1.20;;;17.80;75.80;;;;;;4984098;28;20019;-74
2022/08/06 02:03:12;;;;;;;3.70;1.10;;;17.90;75.40;;;;;;4975999;28;20015;-70
2022/08/06 02:05:40;;;;;;;2.43;1.03;;;17.80;75.60;;;;;;4976015;28;20031;-67
2022/08/06 02:08:07;;;;;;;2.35;0.85;;;17.80;76.10;;;;;;4976682;28;20281;-73
2022/08/06 02:10:35;;;;;;;5.00;1.52;;;17.80;76.00;;;;;;4976537;28;20102;-75
2022/08/06 02:13:03;;;;;;;2.65;1.10;;;17.80;76.10;;;;;;4976657;28;20035;-75
2022/08/06 02:15:30;;;;;;;4.07;1.10;;;17.80;76.40;;;;;;4976174;28;20043;-75
2022/08/06 02:17:59;;;;;;;7.40;1.08;;;17.80;76.10;;;;;;4976572;28;20097;-75
2022/08/06 02:20:30;;;;;;;4.07;1.40;;;17.70;76.10;;;;;;4976533;28;20031;-75
2022/08/06 02:22:59;;;;;;;4.10;1.10;;;17.70;76.60;;;;;;4976753;28;20027;-75
2022/08/06 02:25:25;;;;;;;4.65;1.13;;;17.70;76.80;;;;;;4976276;28;20165;-74
2022/08/06 02:27:55;;;;;;;3.50;0.95;;;17.60;76.80;;;;;;4976551;28;20027;-71
2022/08/06 02:30:22;;;;;;;2.92;0.90;;;17.60;76.90;;;;;;4990319;28;20123;-67
2022/08/06 02:32:48;;;;;;;3.22;1.10;;;17.60;77.30;;;;;;4995844;28;20035;-70
2022/08/06 02:35:14;;;;;;;3.63;1.10;;;17.60;77.10;;;;;;4995227;28;20026;-72
2022/08/06 02:37:52;;;;;;;3.90;1.20;;;17.60;77.70;;;;;;4995606;28;20475;-67
2022/08/06 02:40:32;;;;;;;3.85;1.05;;;17.50;77.80;;;;;;4995361;28;20018;-67
2022/08/06 02:43:03;;;;;;;4.93;1.05;;;17.50;78.10;;;;;;4995877;28;20467;-68
2022/08/06 02:45:48;;;;;;;3.95;1.13;;;17.50;78.10;;;;;;4995419;28;20034;-67
2022/08/06 02:48:29;;;;;;;2.53;1.00;;;17.50;78.00;;;;;;4995594;28;20026;-70
2022/08/06 02:50:56;;;;;;;3.28;0.80;;;17.40;78.30;;;;;;4995294;28;20034;-70
2022/08/06 02:53:29;;;;;;;5.40;1.13;;;17.50;78.40;;;;;;4977503;28;20027;-66
2022/08/06 02:56:02;;;;;;;3.63;1.20;;;17.40;78.40;;;;;;4978009;28;20479;-67
2022/08/06 02:58:35;;;;;;;4.40;1.10;;;17.40;78.60;;;;;;4995270;28;20113;-66
2022/08/06 03:01:06;;;;;;;3.50;1.20;;;17.40;78.60;;;;;;4995211;28;20026;-71
2022/08/06 03:03:33;;;;;;;4.00;0.90;;;17.40;78.90;;;;;;4995445;28;20026;-66
2022/08/06 03:06:02;;;;;;;3.67;1.08;;;17.40;78.80;;;;;;4995177;28;20046;-75
2022/08/06 03:08:30;;;;;;;3.00;0.90;;;17.30;78.90;;;;;;4994943;28;20041;-71
2022/08/06 03:10:57;;;;;;;3.58;0.82;;;17.30;79.00;;;;;;4995238;28;20046;-69
2022/08/06 03:13:24;;;;;;;6.10;1.10;;;17.30;79.00;;;;;;4995027;28;20042;-67
2022/08/06 03:15:51;;;;;;;4.20;1.05;;;17.30;79.20;;;;;;4994926;28;20444;-69
2022/08/06 03:18:18;;;;;;;4.00;1.33;;;17.30;79.30;;;;;;4977367;28;20466;-66
2022/08/06 03:20:45;;;;;;;3.00;1.00;;;17.30;79.30;;;;;;4977409;28;20380;-66
2022/08/06 03:23:13;;;;;;;3.72;1.05;;;17.20;79.40;;;;;;4994533;28;20023;-67
2022/08/06 03:25:39;;;;;;;2.92;0.82;;;17.30;79.60;;;;;;4993995;28;20018;-69
2022/08/06 03:28:06;;;;;;;3.92;0.93;;;17.30;79.60;;;;;;4994851;28;20054;-68
2022/08/06 03:30:33;;;;;;;3.08;1.15;;;17.30;79.70;;;;;;4994365;28;20069;-73
2022/08/06 03:33:04;;;;;;;4.03;1.08;;;17.30;80.10;;;;;;4994713;28;20105;-74
2022/08/06 03:35:32;;;;;;;8.37;1.00;;;17.20;79.80;;;;;;4994670;28;20049;-70
2022/08/06 03:37:58;;;;;;;3.22;0.80;;;17.20;79.90;;;;;;4994407;28;20390;-74
2022/08/06 03:40:25;;;;;;;3.72;0.90;;;17.20;79.90;;;;;;4994546;28;20483;-68
2022/08/06 03:42:51;;;;;;;3.95;0.85;;;17.20;79.90;;;;;;4994825;28;20034;-66
2022/08/06 03:45:17;;;;;;;3.13;1.02;;;17.20;79.90;;;;;;4994205;28;20030;-75
2022/08/06 03:47:49;;;;;;;3.35;0.73;;;17.10;79.90;;;;;;4994553;28;20037;-68
2022/08/06 03:50:19;;;;;;;2.58;0.77;;;17.10;80.00;;;;;;4994572;28;20084;-66
2022/08/06 03:52:54;;;;;;;5.47;0.88;;;17.10;80.40;;;;;;4994141;28;20483;-69
2022/08/06 03:55:23;;;;;;;4.68;1.23;;;17.10;80.50;;;;;;4994278;28;20023;-67
2022/08/06 03:57:53;;;;;;;4.30;0.90;;;17.10;80.60;;;;;;4993915;28;20037;-66
2022/08/06 04:00:24;;;;;;;3.65;1.08;;;17.10;80.80;;;;;;4994205;28;20027;-67
2022/08/06 04:02:52;;;;;;;3.35;0.93;;;17.10;80.50;;;;;;4976756;28;20361;-67
2022/08/06 04:05:23;;;;;;;3.78;0.90;;;17.00;80.70;;;;;;4993906;28;20015;-67
2022/08/06 04:07:53;;;;;;;2.77;1.07;;;17.00;81.00;;;;;;4994103;28;20026;-68
2022/08/06 04:10:19;;;;;;;3.28;0.95;;;17.00;80.90;;;;;;4994021;28;20054;-67
2022/08/06 04:12:46;;;;;;;3.72;1.13;;;17.00;81.20;;;;;;4993852;28;20034;-71
2022/08/06 04:15:13;;;;;;;5.07;0.95;;;17.00;81.50;;;;;;4993990;28;20030;-67
2022/08/06 04:17:42;;;;;;;2.13;0.98;;;17.00;81.50;;;;;;4993651;28;20491;-66
2022/08/06 04:20:11;;;;;;;2.72;0.85;;;16.90;81.10;;;;;;4993955;28;20022;-67
2022/08/06 04:22:36;;;;;;;5.43;0.80;;;16.90;81.40;;;;;;4993874;28;20022;-66
2022/08/06 04:25:02;;;;;;;2.83;0.77;;;16.90;81.50;;;;;;4993942;28;20026;-66
2022/08/06 04:27:28;;;;;;;5.85;1.10;;;16.90;81.80;;;;;;4993778;28;20077;-66
2022/08/06 04:29:56;;;;;;;3.70;0.90;;;16.90;81.80;;;;;;4993951;28;20022;-66
2022/08/06 04:32:23;;;;;;;2.60;0.85;;;16.90;81.90;;;;;;4993730;28;20105;-66
2022/08/06 04:34:51;;;;;;;2.55;0.80;;;16.90;81.70;;;;;;4993625;28;20109;-67
2022/08/06 04:37:17;;;;;;;5.95;1.20;;;16.90;81.90;;;;;;4993300;28;20385;-67
2022/08/06 04:39:43;;;;;;;5.53;1.05;;;16.90;82.10;;;;;;4993824;28;20026;-67
2022/08/06 04:42:09;;;;;;;4.13;1.00;;;16.90;82.10;;;;;;4993451;28;20022;-66
2022/08/06 04:44:35;;;;;;;2.97;1.00;;;16.90;82.20;;;;;;4993889;28;20053;-66
2022/08/06 04:47:02;;;;;;;2.15;0.95;;;16.90;82.40;;;;;;4993462;28;20464;-67
2022/08/06 04:49:29;;;;;;;3.20;0.93;;;17.00;82.30;;;;;;4993364;28;20034;-71
2022/08/06 04:51:55;;;;;;;3.90;0.80;;;17.00;82.40;;;;;;4993538;28;20033;-65
2022/08/06 04:54:21;;;;;;;7.00;1.85;;;17.00;82.60;;;;;;4993817;28;20046;-66
2022/08/06 04:56:46;;;;;;;4.40;0.77;;;17.00;82.30;;;;;;4993579;28;20475;-67
2022/08/06 04:59:12;;;;;;;6.00;1.00;;;17.00;82.50;;;;;;4993600;28;20033;-66
2022/08/06 05:01:38;;;;;;;3.55;1.20;;;17.00;82.90;;;;;;4982237;28;20124;-67
2022/08/06 05:04:04;;;;;;;4.45;1.10;;;17.10;82.70;;;;;;4973666;28;20027;-75
2022/08/06 05:06:52;;;;;;;5.70;1.27;;;17.00;82.60;;;;;;4971984;28;20023;-67
2022/08/06 05:09:24;;;;;;;3.75;1.10;;;17.00;82.90;;;;;;4973190;28;20073;-66
2022/08/06 05:12:03;;;;;;;3.80;1.30;;;17.10;82.50;;;;;;4974157;28;20027;-66
2022/08/06 05:14:36;;;;;;;5.25;1.70;;;17.10;83.30;;;;;;4973725;28;20038;-68
2022/08/06 05:17:03;;;;;;;5.72;1.33;;;17.10;83.00;;;;;;4974087;28;20030;-69
2022/08/06 05:19:36;;;;;;;6.82;1.25;;;17.20;83.30;;;;;;4973774;28;20026;-69
2022/08/06 05:22:03;;;;;;;4.30;1.25;;;17.20;83.00;;;;;;4974077;28;20033;-70
2022/08/06 05:24:29;;;;;;;5.20;1.40;;;17.10;82.60;;;;;;4973748;28;20085;-66
2022/08/06 05:26:56;;;;;;;4.32;1.10;;;17.20;82.70;;;;;;4974060;28;20475;-67
2022/08/06 05:29:21;;;;;;;7.47;1.70;;;17.20;83.00;;;;;;4973867;28;20077;-69
2022/08/06 05:31:47;;;;;;;5.32;1.48;;;17.20;83.10;;;;;;4973997;28;20039;-67
2022/08/06 05:34:13;;;;;;;4.82;1.50;;;17.30;82.60;;;;;;4973522;28;20030;-67
2022/08/06 05:36:40;;;;;;;5.00;1.15;;;17.30;82.10;;;;;;4973647;28;20038;-71
2022/08/06 05:39:06;;;;;;;5.45;1.27;;;17.50;81.90;;;;;;4973766;28;20034;-69
2022/08/06 05:41:34;;;;;;;6.32;1.75;;;17.40;82.40;;;;;;4973902;28;20027;-73
2022/08/06 05:44:01;;;;;;;5.07;1.33;;;17.40;82.80;;;;;;4956294;28;20370;-77
2022/08/06 05:46:33;;;;;;;5.00;1.80;;;17.30;83.00;;;;;;4973972;28;20026;-67
2022/08/06 05:48:59;;;;;;;;;;;17.40;83.20;;;;;;4974837;28;20045;-75
2022/08/06 05:51:32;;;;;;;4.05;1.13;;;17.40;83.20;;;;;;4977156;28;20355;-76
2022/08/06 05:54:05;;;;;;;3.33;1.48;;;17.40;83.20;;;;;;4977084;28;20106;-75
2022/08/06 05:56:38;;;;;;;4.85;1.90;;;17.50;83.00;;;;;;4977026;28;20499;-69
2022/08/06 05:59:10;;;;;;;5.95;1.50;;;17.60;82.70;;;;;;4977087;28;20022;-68
2022/08/06 06:01:36;;;;;;;5.70;1.30;;;17.70;82.70;;;;;;4976606;28;20031;-66
2022/08/06 06:04:03;;;;;;;5.97;1.45;;;17.80;82.60;;;;;;4977186;28;20023;-72
2022/08/06 06:06:30;;;;;;;4.63;1.20;;;17.90;83.10;;;;;;4976904;28;20042;-66
2022/08/06 06:08:56;;;;;;;6.00;1.98;;;18.20;81.60;;;;;;4976804;28;20025;-66
2022/08/06 06:11:23;;;;;;;4.75;1.20;;;18.50;80.40;;;;;;4976933;28;20025;-67
2022/08/06 06:13:49;;;;;;;2.10;1.20;;;18.70;80.00;;;;;;4976768;28;20038;-66
2022/08/06 06:16:24;;;;;;;4.63;1.00;;;18.80;79.50;;;;;;4976506;28;20035;-66
2022/08/06 06:19:06;;;;;;;4.20;1.17;;;18.80;78.90;;;;;;4976645;28;20423;-67
2022/08/06 06:21:50;;;;;;;3.22;1.08;;;19.00;78.80;;;;;;4976692;28;20031;-73
2022/08/06 06:24:48;;;;;;;5.18;1.65;;;19.20;78.30;;;;;;4976649;28;20109;-67
2022/08/06 06:27:19;;;;;;;8.45;1.27;;;19.30;78.10;;;;;;4976471;28;20015;-66
2022/08/06 06:30:09;;;;;;;3.85;1.15;;;19.30;77.50;;;;;;4976221;28;20027;-67
2022/08/06 06:33:10;;;;;;;5.35;1.40;;;19.40;77.50;;;;;;4975809;28;20038;-67
2022/08/06 06:35:57;;;;;;;4.97;0.93;;;19.50;77.00;;;;;;4976420;28;20037;-67
2022/08/06 06:38:55;;;;;;;3.85;0.90;;;19.50;76.80;;;;;;4976259;28;20034;-67
2022/08/06 06:41:36;;;;;;;6.22;1.13;;;19.60;77.00;;;;;;4975454;28;20049;-65
2022/08/06 06:44:18;;;;;;;3.90;0.93;;;19.70;76.80;;;;;;4976480;28;20035;-76
2022/08/06 06:46:46;;;;;;;4.93;1.08;;;19.60;76.60;;;;;;4976122;28;20031;-67
2022/08/06 06:49:37;;;;;;;4.13;1.00;;;19.60;76.10;;;;;;4976106;28;20027;-74
2022/08/06 06:52:10;;;;;;;4.60;1.08;;;19.70;76.50;;;;;;4976154;28;20109;-75
2022/08/06 06:54:44;;;;;;;3.55;1.10;;;19.70;76.60;;;;;;4976047;28;20023;-75
2022/08/06 06:57:15;;;;;;;7.13;1.35;;;19.70;76.90;;;;;;4975998;28;20070;-75
2022/08/06 06:59:44;;;;;;;4.07;0.93;;;19.80;76.90;;;;;;4975491;28;20026;-72
2022/08/06 07:02:21;;;;;;;5.90;1.17;;;19.80;77.00;;;;;;4976078;28;20258;-73
2022/08/06 07:04:48;;;;;;;5.18;0.98;;;19.80;77.30;;;;;;4975721;28;20031;-73
2022/08/06 07:07:16;;;;;;;11.52;1.40;;;19.90;77.70;;;;;;4983781;28;20041;-72
2022/08/06 07:09:43;;;;;;;5.93;0.73;;;20.00;77.90;;;;;;4989840;28;20468;-67
2022/08/06 07:12:12;;;;;;;6.22;0.70;;;20.20;76.60;;;;;;4985172;28;20539;-69
2022/08/06 07:14:40;;;;;;;5.25;1.15;;;20.30;76.40;;;;;;4985202;28;20173;-68
2022/08/06 07:17:07;;;;;;;3.45;1.10;;;20.40;76.40;;;;;;4996511;28;20467;-68
2022/08/06 07:19:35;;;;;;;2.80;0.70;;;20.50;76.30;;;;;;4994538;28;20030;-72
2022/08/06 07:22:02;;;;;;;2.30;0.50;;;20.50;76.30;;;;;;4994134;28;20074;-76
2022/08/06 07:24:31;;;;;;;5.28;0.68;;;20.50;76.40;;;;;;4992560;28;20022;-76
2022/08/06 07:26:57;;;;;;;2.72;0.52;;;20.60;76.90;;;;;;4991743;28;20065;-75
2022/08/06 07:29:24;;;;;;;4.57;0.73;;;20.70;75.50;;;;;;4988922;28;21110;-75
2022/08/06 07:31:50;;;;;;;3.58;0.50;;;20.70;75.50;;;;;;4984549;28;20015;-72
2022/08/06 07:34:16;;;;;;;4.82;0.75;;;20.80;75.60;;;;;;4990726;28;20031;-68
2022/08/06 07:36:47;;;;;;;2.70;0.50;;;20.80;75.80;;;;;;4991866;28;20030;-68
2022/08/06 07:39:19;;;;;;;4.25;0.50;;;20.80;74.80;;;;;;4990896;28;20380;-71
2022/08/06 07:41:47;;;;;;;3.30;0.90;;;20.90;74.80;;;;;;4993929;28;20105;-75
2022/08/06 07:44:13;;;;;;;5.82;0.93;;;20.90;74.40;;;;;;4993772;28;20030;-71
2022/08/06 07:46:42;;;;;;;2.08;0.40;;;21.10;73.10;;;;;;4989345;28;20014;-72
2022/08/06 07:49:11;;;;;;;5.43;0.60;;;21.10;72.30;;;;;;4994046;28;20105;-75
2022/08/06 07:51:41;;;;;;;1.88;0.50;;;21.10;74.40;;;;;;4993855;28;20014;-75
2022/08/06 07:54:08;;;;;;;3.97;0.70;;;21.10;74.20;;;;;;4993872;28;20138;-75
2022/08/06 07:56:36;;;;;;;3.25;0.57;;;21.20;72.80;;;;;;4993308;28;20019;-68
2022/08/06 07:59:04;;;;;;;2.92;0.55;;;21.20;72.30;;;;;;4976392;28;20031;-69
2022/08/06 08:01:31;;;;;;;3.17;0.40;;;21.30;72.60;;;;;;4991045;28;20380;-67
2022/08/06 08:06:41;;;;;;;4.22;0.40;;;21.40;72.40;;;;;;4993367;28;20084;-76
2022/08/06 08:09:14;;;;;;;6.32;0.68;;;21.60;71.00;;;;;;4980944;28;20074;-71
2022/08/06 08:11:46;;;;;;;3.28;0.55;;;21.60;72.20;;;;;;4992327;28;20097;-73
2022/08/06 08:14:14;;;;;;;1.00;0.45;;;21.70;70.80;;;;;;4993240;28;20492;-73
2022/08/06 08:16:42;;;;;;;2.95;0.50;;;21.90;67.60;;;;;;4993534;28;20102;-75
2022/08/06 08:19:22;;;;;;;3.03;0.50;;;21.90;67.60;;;;;;4992053;28;20035;-75
2022/08/06 08:21:49;;;;;;;3.17;0.70;;;21.90;68.00;;;;;;4969206;28;20053;-73
2022/08/06 08:24:15;;;;;;;1.42;0.30;;;21.90;67.70;;;;;;4986744;28;20018;-72
2022/08/06 08:26:41;;;;;;;2.95;0.50;;;21.90;68.60;;;;;;4975787;28;20030;-74
2022/08/06 08:29:07;;;;;;;3.15;0.30;;;22.10;67.00;;;;;;4991086;28;20037;-75
2022/08/06 08:31:32;;;;;;;1.45;0.30;;;22.10;66.30;;;;;;4998054;28;20034;-73
2022/08/06 08:33:58;;;;;;;2.40;0.50;;;22.10;67.00;;;;;;4995805;28;20037;-69
2022/08/06 08:36:23;;;;;;;2.13;0.40;;;22.20;65.20;;;;;;4984153;28;20396;-70
2022/08/06 08:38:52;;;;;;;2.50;0.50;;;22.20;65.00;;;;;;4992027;28;20030;-69
2022/08/06 08:41:25;;;;;;;3.25;0.50;;;22.30;64.50;;;;;;4991692;28;20022;-74
2022/08/06 08:44:06;;;;;;;3.05;0.40;;;22.30;63.70;;;;;;4987419;28;20054;-73
2022/08/06 08:46:42;;;;;;;0.80;0.20;;;22.40;62.60;;;;;;4987298;28;20050;-74
2022/08/06 08:49:18;;;;;;;3.47;0.30;;;22.40;62.00;;;;;;4992304;28;20061;-74
2022/08/06 08:51:46;;;;;;;1.23;0.30;;;22.50;61.50;;;;;;4992662;28;20030;-72
2022/08/06 08:54:16;;;;;;;1.35;0.35;;;22.40;62.00;;;;;;4984907;28;20089;-69
2022/08/06 08:56:43;;;;;;;1.40;0.40;;;22.40;61.90;;;;;;4995907;28;20018;-68
2022/08/06 08:59:09;;;;;;;2.35;0.30;;;22.40;62.40;;;;;;4988593;28;20031;-68
2022/08/06 09:01:35;;;;;;;2.65;0.40;;;22.40;60.70;;;;;;4988220;28;20025;-72
2022/08/06 09:04:04;;;;;;;1.05;0.20;;;22.40;63.40;;;;;;4991962;28;20504;-72
2022/08/06 09:06:32;;;;;;;2.40;0.70;;;22.50;61.20;;;;;;4977860;28;20027;-72
2022/08/06 09:09:03;;;;;;;2.58;0.50;;;22.50;61.60;;;;;;4988359;28;20102;-71
2022/08/06 09:11:30;;;;;;;2.95;0.40;;;22.50;62.00;;;;;;4982066;28;20053;-73
2022/08/06 09:13:56;;;;;;;0.93;0.15;;;22.60;61.30;;;;;;4991348;28;20543;-70
2022/08/06 09:16:21;;;;;;;1.08;0.20;;;22.60;61.50;;;;;;4992682;28;20027;-69
2022/08/06 09:18:47;;;;;;;1.90;0.45;;;22.50;61.50;;;;;;4989601;28;20444;-68
2022/08/06 09:21:13;;;;;;;2.33;0.35;;;22.60;61.20;;;;;;4988134;28;20113;-72
2022/08/06 09:23:39;;;;;;;2.28;0.77;;;22.60;62.20;;;;;;4990867;28;20027;-72
2022/08/06 09:26:05;;;;;;;2.67;0.30;;;22.60;61.80;;;;;;4987228;28;20504;-74
2022/08/06 09:28:36;;;;;;;2.60;0.10;;;22.60;62.00;;;;;;4978407;28;20050;-73
2022/08/06 09:31:04;;;;;;;3.20;0.40;;;22.60;62.30;;;;;;4996802;28;20030;-73
2022/08/06 09:33:31;;;;;;;1.13;0.28;;;22.60;60.50;;;;;;5007597;28;20027;-74
2022/08/06 09:36:08;;;;;;;2.65;0.45;;;22.70;59.60;;;;;;4996633;28;20026;-74
2022/08/06 09:38:47;;;;;;;2.95;0.40;;;22.70;60.20;;;;;;4997342;28;20056;-72
2022/08/06 09:41:13;;;;;;;2.30;0.40;;;22.60;60.20;;;;;;5002746;28;20022;-71
2022/08/06 09:43:40;;;;;;;3.22;0.40;;;22.60;60.20;;;;;;4991796;28;20027;-69
2022/08/06 09:46:06;;;;;;;3.45;0.20;;;22.60;58.40;;;;;;4991845;28;20042;-72
2022/08/06 09:48:33;;;;;;;2.95;0.30;;;22.60;58.60;;;;;;4992699;28;20117;-72
2022/08/06 09:50:58;;;;;;;1.45;0.30;;;22.60;59.50;;;;;;4990912;28;20015;-69
2022/08/06 09:53:24;;;;;;;2.38;0.30;;;22.70;58.20;;;;;;4991565;28;20026;-68
2022/08/06 09:55:52;;;;;;;2.03;0.32;;;22.60;58.30;;;;;;4991526;28;20015;-68
2022/08/06 09:58:35;;;;;;;1.33;0.30;;;22.70;57.60;;;;;;4994698;28;20463;-71
2022/08/06 10:01:22;;;;;;;1.77;0.25;;;22.70;59.90;;;;;;4988612;28;20030;-73
2022/08/06 10:03:49;;;;;;;4.15;0.45;;;22.70;60.60;;;;;;4993731;28;20026;-73
2022/08/06 10:06:20;;;;;;;2.85;0.40;;;22.70;58.90;;;;;;4996378;28;20494;-71
2022/08/06 10:08:48;;;;;;;2.17;0.22;;;22.70;58.70;;;;;;4993420;28;20038;-73
2022/08/06 10:11:15;;;;;;;5.45;0.50;;;22.70;59.90;;;;;;4993399;28;20014;-66
2022/08/06 10:13:47;;;;;;;1.02;0.20;;;22.80;60.40;;;;;;4993397;28;20033;-66
2022/08/06 10:16:26;;;;;;;1.80;0.30;;;22.80;59.40;;;;;;4992020;28;20023;-70
2022/08/06 10:18:53;;;;;;;2.22;0.30;;;22.80;59.10;;;;;;4993223;28;20124;-72
2022/08/06 10:21:22;;;;;;;2.67;0.20;;;22.80;60.50;;;;;;4987690;28;20033;-73
2022/08/06 10:23:50;;;;;;;1.73;0.20;;;22.80;58.60;;;;;;4991598;28;20034;-67
2022/08/06 10:26:24;;;;;;;2.40;0.30;;;22.70;57.80;;;;;;4994352;28;20029;-74
2022/08/06 10:28:51;;;;;;;4.00;0.40;;;22.70;58.90;;;;;;4988747;28;20211;-68
2022/08/06 10:31:18;;;;;;;2.72;0.30;;;22.80;59.30;;;;;;4993926;28;20037;-73
2022/08/06 10:34:11;;;;;;;1.70;0.30;;;22.70;58.80;;;;;;4990578;28;20014;-73
2022/08/06 10:36:45;;;;;;;1.88;0.40;;;22.80;58.80;;;;;;4992546;28;20106;-73
2022/08/06 10:39:11;;;;;;;2.65;0.20;;;22.60;58.20;;;;;;4973519;28;20035;-70
2022/08/06 10:41:38;;;;;;;1.55;0.40;;;22.70;58.80;;;;;;4997448;28;20058;-70
2022/08/06 10:44:04;;;;;;;3.10;0.28;;;22.70;57.60;;;;;;4998661;28;20094;-74
2022/08/06 10:46:31;;;;;;;2.00;0.40;;;22.70;57.00;;;;;;4989666;28;20446;-74
2022/08/06 10:48:57;;;;;;;2.95;0.20;;;22.80;59.40;;;;;;4992874;28;20026;-70
2022/08/06 10:51:23;;;;;;;1.75;0.30;;;22.80;58.30;;;;;;4992799;28;20443;-71
2022/08/06 10:53:49;;;;;;;1.30;0.30;;;22.90;59.30;;;;;;4993379;28;20467;-68
2022/08/06 10:56:17;;;;;;;2.70;0.20;;;22.90;58.40;;;;;;4989907;28;20535;-68
2022/08/06 10:58:44;;;;;;;0.98;0.30;;;22.90;56.90;;;;;;4982711;28;20034;-69
2022/08/06 11:01:43;;;;;;;4.28;0.43;;;22.90;57.50;;;;;;4980564;28;20380;-68
2022/08/06 11:04:15;;;;;;;1.45;0.30;;;22.90;57.40;;;;;;4991725;28;20610;-68
2022/08/06 11:06:40;;;;;;;0.82;0.32;;;22.90;56.60;;;;;;4967720;28;20052;-68
2022/08/06 11:09:36;;;;;;;4.53;0.50;;;22.90;56.10;;;;;;4984322;28;20037;-69
2022/08/06 11:12:13;;;;;;;2.05;0.28;;;23.00;57.10;;;;;;4986595;28;20019;-70
2022/08/06 11:14:39;;;;;;;2.13;0.40;;;23.00;56.40;;;;;;4994124;28;20045;-68
2022/08/06 11:17:06;;;;;;;1.45;0.20;;;23.00;57.80;;;;;;4993701;28;20026;-70
2022/08/06 11:19:46;;;;;;;2.13;0.65;;;23.00;58.00;;;;;;4993692;28;20026;-66
2022/08/06 11:22:35;;;;;;;4.18;0.45;;;23.00;58.20;;;;;;4981809;28;20041;-69
2022/08/06 11:25:02;;;;;;;3.50;0.52;;;23.00;58.70;;;;;;4991074;28;20030;-71
2022/08/06 11:27:47;;;;;;;2.80;0.60;;;23.10;57.80;;;;;;4990345;28;20097;-71
2022/08/06 11:30:13;;;;;;;2.47;0.28;;;23.10;60.20;;;;;;4994302;28;20042;-69
2022/08/06 11:32:44;;;;;;;2.60;0.38;;;23.10;57.30;;;;;;4972687;28;20491;-72
2022/08/06 11:35:45;;;;;;;2.05;0.55;;;23.10;57.30;;;;;;4992615;28;20018;-67
2022/08/06 11:38:13;;;;;;;2.08;0.38;;;23.10;59.30;;;;;;4957127;28;20038;-68
2022/08/06 11:41:01;;;;;;;4.05;1.05;;;23.20;57.10;;;;;;4993105;28;20086;-69
2022/08/06 11:43:48;;;;;;;1.50;0.60;;;23.20;62.20;;;;;;4992771;28;20046;-71
2022/08/06 11:46:30;;;;;;;2.97;0.80;;;23.20;62.50;;;;;;4989832;28;20061;-69
2022/08/06 11:48:59;;;;;;;3.70;0.40;;;23.20;61.50;;;;;;4973245;28;20027;-67
2022/08/06 11:51:44;;;;;;;1.48;0.40;;;23.20;58.90;;;;;;4987718;28;20286;-73
2022/08/06 11:54:23;;;;;;;2.03;0.70;;;23.20;59.70;;;;;;4986824;28;20026;-68
2022/08/06 11:57:01;;;;;;;2.80;0.52;;;23.20;57.00;;;;;;4991476;28;20037;-71
2022/08/06 11:59:34;;;;;;;2.45;0.73;;;23.20;57.00;;;;;;4994598;28;20077;-73
2022/08/06 12:02:05;;;;;;;2.33;0.55;;;23.20;57.50;;;;;;4965353;28;20023;-72
2022/08/06 12:04:38;;;;;;;1.42;0.52;;;23.30;58.50;;;;;;4989015;28;20029;-74
2022/08/06 12:07:22;;;;;;;3.00;0.60;;;23.20;57.20;;;;;;4973635;28;20113;-74
2022/08/06 12:10:02;;;;;;;0.82;0.32;;;23.20;57.10;;;;;;4992475;28;20022;-68
2022/08/06 12:12:38;;;;;;;2.50;0.50;;;23.30;56.40;;;;;;4991000;28;20038;-68
2022/08/06 12:15:28;;;;;;;5.47;0.73;;;23.30;56.80;;;;;;4992436;28;20030;-70
2022/08/06 12:17:54;;;;;;;1.80;0.60;;;23.30;57.40;;;;;;4988110;28;20062;-72
2022/08/06 12:20:35;;;;;;;1.90;0.70;;;23.40;58.70;;;;;;4992691;28;20057;-65
2022/08/06 12:23:03;;;;;;;2.70;0.50;;;23.30;58.00;;;;;;4990035;28;20024;-74
2022/08/06 12:25:38;;;;;;;2.35;0.90;;;23.40;57.40;;;;;;4992193;28;20085;-76
2022/08/06 12:28:07;;;;;;;1.58;0.47;;;23.40;57.30;;;;;;4987893;28;20476;-73
2022/08/06 12:30:46;;;;;;;2.80;0.90;;;23.40;57.40;;;;;;5000275;28;20022;-66
2022/08/06 12:33:12;;;;;;;3.78;0.85;;;23.40;59.20;;;;;;4982176;28;20344;-75
2022/08/06 12:35:59;;;;;;;2.08;0.80;;;23.40;57.70;;;;;;4993194;28;20030;-72
2022/08/06 12:38:31;;;;;;;2.58;1.05;;;23.40;56.90;;;;;;4992951;28;20505;-74
2022/08/06 12:40:57;;;;;;;3.67;0.95;;;23.50;56.80;;;;;;4992154;28;20026;-72
2022/08/06 12:43:24;;;;;;;3.00;0.80;;;23.50;56.60;;;;;;4986704;28;20054;-73
2022/08/06 12:45:57;;;;;;;4.43;1.52;;;23.50;57.80;;;;;;4993528;28;20037;-74
2022/08/06 12:48:22;;;;;;;3.28;0.80;;;23.50;56.90;;;;;;5002150;28;20026;-66
2022/08/06 12:50:48;;;;;;;3.35;0.88;;;23.50;56.00;;;;;;4993288;28;20116;-71
2022/08/06 12:53:18;;;;;;;2.10;0.88;;;23.50;56.10;;;;;;4991718;28;20154;-66
2022/08/06 12:55:46;;;;;;;3.55;0.88;;;23.50;56.60;;;;;;4984146;28;20042;-67
2022/08/06 12:58:17;;;;;;;1.55;0.95;;;23.50;57.00;;;;;;4984787;28;20034;-69
2022/08/06 13:00:48;;;;;;;3.88;1.25;;;23.50;56.00;;;;;;4991048;28;20025;-68
2022/08/06 13:03:14;;;;;;;2.55;1.00;;;23.50;57.40;;;;;;4989303;28;20031;-67
2022/08/06 13:05:42;;;;;;;4.07;1.10;;;23.50;57.20;;;;;;4990269;28;20030;-68
2022/08/06 13:08:08;;;;;;;3.47;0.98;;;23.60;56.90;;;;;;4990132;28;20030;-69